There are multiple Weather-warnings   Click here for more information


Meteo18 Weather Cam more information Meteo18 Weather Cam


warning for Thunderstorms more information blitzortung!


Rain radar more information rain snow radar


Visit our other weather sites:

Template documentation
and downloads

And another site



Weather Underground History page Text

Daily Summary for October 1, 2017 Units:  Both    English   Metric
« Previous Day
Next Day »
Daily Weekly Monthly Yearly Custom
  High: Low: Average:
Temperature: 60.3 °F /  15.7 °C 47.5 °F /  8.6 °C 53.8 °F /  12.1 °C
Dew Point: 55.9 °F /  13.3 °C 46 °F /  7.8 °C 51.4 °F /  10.8 °C
Humidity: 97 % 75 % 92 %
Wind Speed: 12 mph /  19.3 km/h - 2.9 mph /  4.6 km/h
Wind Gust: 15 mph /  24.1 km/h - -
Wind:- - SSW
Pressure: 30.2 in /  1022.6 hPa 30.2 in /  1020.9 hPa -
Precipitation: 0.02 in /  0.5 mm    
Historical Graphs
 
 
Tabular Data for October 1, 2017
Time Temperature Dew Point Pressure Wind Wind Speed Wind Gust Humidity Rainfall Rate (Hourly)
00:02 48.7 °F /  9.3 °C 47.1 °F /  8.4 °C 30.2 in /  1022.2 hPa Calm   1 mph /  1.6 km/h 94 % 0 in /  0.0 mm
00:12 48.7 °F /  9.3 °C 47.3 °F /  8.5 °C 30.2 in /  1022.2 hPa Calm   1 mph /  1.6 km/h 95 % 0 in /  0.0 mm
00:17 49.1 °F /  9.5 °C 47.7 °F /  8.7 °C 30.2 in /  1022.2 hPa Calm     95 % 0 in /  0.0 mm
00:22 48.9 °F /  9.4 °C 47.3 °F /  8.5 °C 30.2 in /  1021.9 hPa Calm     94 % 0 in /  0.0 mm
00:27 48.7 °F /  9.3 °C 47.1 °F /  8.4 °C 30.2 in /  1021.9 hPa Calm     94 % 0 in /  0.0 mm
00:32 48.7 °F /  9.3 °C 47.3 °F /  8.5 °C 30.2 in /  1021.9 hPa Calm     95 % 0 in /  0.0 mm
00:42 48.4 °F /  9.1 °C 46.9 °F /  8.3 °C 30.2 in /  1021.9 hPa Calm     95 % 0 in /  0.0 mm
00:52 48.4 °F /  9.1 °C 46.9 °F /  8.3 °C 30.2 in /  1021.9 hPa Calm     95 % 0 in /  0.0 mm
01:02 47.8 °F /  8.8 °C 46.4 °F /  8.0 °C 30.2 in /  1021.9 hPa Calm     95 % 0 in /  0.0 mm
01:12 47.7 °F /  8.7 °C 46.2 °F /  7.9 °C 30.2 in /  1021.9 hPa Calm     95 % 0 in /  0.0 mm
01:17 47.7 °F /  8.7 °C 46.2 °F /  7.9 °C 30.2 in /  1021.9 hPa Calm     95 % 0 in /  0.0 mm
01:22 47.7 °F /  8.7 °C 46.2 °F /  7.9 °C 30.2 in /  1022.2 hPa Calm     95 % 0 in /  0.0 mm
01:32 47.8 °F /  8.8 °C 46.8 °F /  8.2 °C 30.2 in /  1022.2 hPa Calm     96 % 0 in /  0.0 mm
01:42 48 °F /  8.9 °C 46.9 °F /  8.3 °C 30.2 in /  1021.9 hPa Calm     96 % 0 in /  0.0 mm
01:52 47.7 °F /  8.7 °C 46.2 °F /  7.9 °C 30.2 in /  1022.2 hPa Calm     95 % 0 in /  0.0 mm
01:57 47.5 °F /  8.6 °C 46 °F /  7.8 °C 30.2 in /  1022.2 hPa Calm     95 % 0 in /  0.0 mm
02:02 47.8 °F /  8.8 °C 46.8 °F /  8.2 °C 30.2 in /  1022.2 hPa Calm     96 % 0 in /  0.0 mm
02:07 47.8 °F /  8.8 °C 46.8 °F /  8.2 °C 30.2 in /  1022.2 hPa Calm     96 % 0 in /  0.0 mm
02:12 47.8 °F /  8.8 °C 46.8 °F /  8.2 °C 30.2 in /  1022.2 hPa Calm     96 % 0 in /  0.0 mm
02:17 47.7 °F /  8.7 °C 46.2 °F /  7.9 °C 30.2 in /  1022.2 hPa Calm     95 % 0 in /  0.0 mm
02:22 47.7 °F /  8.7 °C 46.6 °F /  8.1 °C 30.2 in /  1022.6 hPa Calm     96 % 0 in /  0.0 mm
02:32 47.7 °F /  8.7 °C 46.6 °F /  8.1 °C 30.2 in /  1022.2 hPa Calm     96 % 0 in /  0.0 mm
02:42 47.8 °F /  8.8 °C 46.8 °F /  8.2 °C 30.2 in /  1022.2 hPa Calm     96 % 0 in /  0.0 mm
02:52 47.8 °F /  8.8 °C 46.8 °F /  8.2 °C 30.2 in /  1022.2 hPa Calm     96 % 0 in /  0.0 mm
02:57 47.8 °F /  8.8 °C 46.8 °F /  8.2 °C 30.2 in /  1022.2 hPa Calm     96 % 0 in /  0.0 mm
03:02 47.8 °F /  8.8 °C 46.8 °F /  8.2 °C 30.2 in /  1022.2 hPa Calm     96 % 0 in /  0.0 mm
03:12 47.7 °F /  8.7 °C 46.6 °F /  8.1 °C 30.2 in /  1022.2 hPa Calm     96 % 0 in /  0.0 mm
03:17 47.8 °F /  8.8 °C 46.8 °F /  8.2 °C 30.2 in /  1022.2 hPa Calm     96 % 0 in /  0.0 mm
03:22 47.8 °F /  8.8 °C 46.8 °F /  8.2 °C 30.2 in /  1022.2 hPa Calm     96 % 0 in /  0.0 mm
03:27 48 °F /  8.9 °C 46.9 °F /  8.3 °C 30.2 in /  1022.2 hPa Calm     96 % 0 in /  0.0 mm
03:32 48 °F /  8.9 °C 46.9 °F /  8.3 °C 30.2 in /  1022.2 hPa Calm     96 % 0 in /  0.0 mm
03:42 48 °F /  8.9 °C 46.9 °F /  8.3 °C 30.2 in /  1022.2 hPa Calm     96 % 0 in /  0.0 mm
03:47 48 °F /  8.9 °C 46.9 °F /  8.3 °C 30.2 in /  1021.9 hPa Calm     96 % 0 in /  0.0 mm
03:52 48 °F /  8.9 °C 46.9 °F /  8.3 °C 30.2 in /  1022.2 hPa Calm     96 % 0 in /  0.0 mm
04:02 48 °F /  8.9 °C 46.9 °F /  8.3 °C 30.2 in /  1022.2 hPa Calm     96 % 0 in /  0.0 mm
04:12 48.4 °F /  9.1 °C 47.3 °F /  8.5 °C 30.2 in /  1021.9 hPa Calm     96 % 0 in /  0.0 mm
04:17 48.4 °F /  9.1 °C 47.3 °F /  8.5 °C 30.2 in /  1022.2 hPa Calm     96 % 0 in /  0.0 mm
04:22 48.2 °F /  9.0 °C 47.1 °F /  8.4 °C 30.2 in /  1021.9 hPa Calm     96 % 0 in /  0.0 mm
04:27 48.4 °F /  9.1 °C 47.3 °F /  8.5 °C 30.2 in /  1022.2 hPa Calm     96 % 0 in /  0.0 mm
04:32 48.4 °F /  9.1 °C 47.3 °F /  8.5 °C 30.2 in /  1022.2 hPa Calm     96 % 0 in /  0.0 mm
04:37 48.4 °F /  9.1 °C 47.3 °F /  8.5 °C 30.2 in /  1022.2 hPa Calm     96 % 0 in /  0.0 mm
04:47 48.4 °F /  9.1 °C 47.3 °F /  8.5 °C 30.2 in /  1022.2 hPa Calm     96 % 0 in /  0.0 mm
04:52 48.2 °F /  9.0 °C 47.1 °F /  8.4 °C 30.2 in /  1022.2 hPa Calm     96 % 0 in /  0.0 mm
04:57 48.4 °F /  9.1 °C 47.3 °F /  8.5 °C 30.2 in /  1022.6 hPa Calm     96 % 0 in /  0.0 mm
05:02 48.4 °F /  9.1 °C 47.3 °F /  8.5 °C 30.2 in /  1022.2 hPa Calm     96 % 0 in /  0.0 mm
05:07 48.4 °F /  9.1 °C 47.3 °F /  8.5 °C 30.2 in /  1022.2 hPa Calm     96 % 0 in /  0.0 mm
05:12 48.4 °F /  9.1 °C 47.3 °F /  8.5 °C 30.2 in /  1022.2 hPa Calm     96 % 0 in /  0.0 mm
05:17 48.4 °F /  9.1 °C 47.3 °F /  8.5 °C 30.2 in /  1022.2 hPa Calm     96 % 0 in /  0.0 mm
05:22 48.4 °F /  9.1 °C 47.3 °F /  8.5 °C 30.2 in /  1022.2 hPa Calm     96 % 0 in /  0.0 mm
05:27 48.4 °F /  9.1 °C 47.3 °F /  8.5 °C 30.2 in /  1022.2 hPa Calm     96 % 0 in /  0.0 mm
05:32 48 °F /  8.9 °C 46.9 °F /  8.3 °C 30.2 in /  1022.2 hPa Calm     96 % 0 in /  0.0 mm
05:37 48 °F /  8.9 °C 46.9 °F /  8.3 °C 30.2 in /  1022.2 hPa Calm     96 % 0 in /  0.0 mm
05:42 48 °F /  8.9 °C 46.9 °F /  8.3 °C 30.2 in /  1022.2 hPa Calm     96 % 0 in /  0.0 mm
05:47 48 °F /  8.9 °C 46.9 °F /  8.3 °C 30.2 in /  1022.2 hPa Calm     96 % 0 in /  0.0 mm
05:52 48 °F /  8.9 °C 46.9 °F /  8.3 °C 30.2 in /  1022.6 hPa Calm     96 % 0 in /  0.0 mm
05:57 48.4 °F /  9.1 °C 47.3 °F /  8.5 °C 30.2 in /  1022.2 hPa Calm     96 % 0 in /  0.0 mm
06:02 48.4 °F /  9.1 °C 47.3 °F /  8.5 °C 30.2 in /  1022.2 hPa Calm     96 % 0 in /  0.0 mm
06:12 48.4 °F /  9.1 °C 47.3 °F /  8.5 °C 30.2 in /  1022.2 hPa Calm     96 % 0 in /  0.0 mm
06:17 48.2 °F /  9.0 °C 47.1 °F /  8.4 °C 30.2 in /  1022.2 hPa Calm     96 % 0 in /  0.0 mm
06:22 48.2 °F /  9.0 °C 47.1 °F /  8.4 °C 30.2 in /  1022.2 hPa Calm     96 % 0 in /  0.0 mm
06:27 48.2 °F /  9.0 °C 47.1 °F /  8.4 °C 30.2 in /  1022.2 hPa Calm     96 % 0 in /  0.0 mm
06:32 48.2 °F /  9.0 °C 47.1 °F /  8.4 °C 30.2 in /  1022.2 hPa Calm     96 % 0 in /  0.0 mm
06:37 48.2 °F /  9.0 °C 47.1 °F /  8.4 °C 30.2 in /  1022.2 hPa Calm     96 % 0 in /  0.0 mm
06:42 48.2 °F /  9.0 °C 47.1 °F /  8.4 °C 30.2 in /  1022.2 hPa Calm     96 % 0 in /  0.0 mm
06:47 48.2 °F /  9.0 °C 47.1 °F /  8.4 °C 30.2 in /  1022.2 hPa Calm     96 % 0 in /  0.0 mm
06:57 48.2 °F /  9.0 °C 47.1 °F /  8.4 °C 30.2 in /  1022.2 hPa Calm     96 % 0 in /  0.0 mm
07:02 48.2 °F /  9.0 °C 47.3 °F /  8.5 °C 30.2 in /  1022.2 hPa Calm     97 % 0 in /  0.0 mm
07:07 48 °F /  8.9 °C 46.9 °F /  8.3 °C 30.2 in /  1021.9 hPa Calm     96 % 0 in /  0.0 mm
07:12 48.2 °F /  9.0 °C 47.3 °F /  8.5 °C 30.2 in /  1022.2 hPa Calm     97 % 0 in /  0.0 mm
07:17 48 °F /  8.9 °C 47.1 °F /  8.4 °C 30.2 in /  1022.2 hPa Calm     97 % 0 in /  0.0 mm
07:22 48 °F /  8.9 °C 47.1 °F /  8.4 °C 30.2 in /  1022.2 hPa Calm     97 % 0.01 in /  0.3 mm
07:27 48 °F /  8.9 °C 47.1 °F /  8.4 °C 30.2 in /  1022.2 hPa Calm     97 % 0.01 in /  0.3 mm
07:32 48 °F /  8.9 °C 47.1 °F /  8.4 °C 30.2 in /  1022.2 hPa Calm     97 % 0.01 in /  0.3 mm
07:37 48 °F /  8.9 °C 47.1 °F /  8.4 °C 30.2 in /  1022.2 hPa Calm     97 % 0.01 in /  0.3 mm
07:42 48 °F /  8.9 °C 47.1 °F /  8.4 °C 30.2 in /  1022.2 hPa Calm     97 % 0.01 in /  0.3 mm
07:47 48 °F /  8.9 °C 47.1 °F /  8.4 °C 30.2 in /  1022.2 hPa Calm     97 % 0.01 in /  0.3 mm
07:57 48.2 °F /  9.0 °C 47.3 °F /  8.5 °C 30.2 in /  1022.2 hPa Calm     97 % 0.01 in /  0.3 mm
08:02 48.4 °F /  9.1 °C 47.5 °F /  8.6 °C 30.2 in /  1022.2 hPa Calm     97 % 0.01 in /  0.3 mm
08:07 48.4 °F /  9.1 °C 47.5 °F /  8.6 °C 30.2 in /  1022.2 hPa Calm   2 mph /  3.2 km/h 97 % 0.01 in /  0.3 mm
08:12 48.4 °F /  9.1 °C 47.5 °F /  8.6 °C 30.2 in /  1022.2 hPa Calm   2 mph /  3.2 km/h 97 % 0.01 in /  0.3 mm
08:17 48.6 °F /  9.2 °C 47.7 °F /  8.7 °C 30.2 in /  1022.2 hPa Calm   2 mph /  3.2 km/h 97 % 0.01 in /  0.3 mm
08:22 48.6 °F /  9.2 °C 47.7 °F /  8.7 °C 30.2 in /  1022.2 hPa Calm     97 % 0 in /  0.0 mm
08:32 48.7 °F /  9.3 °C 47.8 °F /  8.8 °C 30.2 in /  1022.2 hPa Calm     97 % 0 in /  0.0 mm
08:37 48.9 °F /  9.4 °C 48 °F /  8.9 °C 30.2 in /  1022.2 hPa Calm     97 % 0 in /  0.0 mm
08:42 48.9 °F /  9.4 °C 48 °F /  8.9 °C 30.2 in /  1022.2 hPa Calm   1 mph /  1.6 km/h 97 % 0 in /  0.0 mm
08:47 49.3 °F /  9.6 °C 48.4 °F /  9.1 °C 30.2 in /  1022.2 hPa Calm   1 mph /  1.6 km/h 97 % 0 in /  0.0 mm
08:52 49.5 °F /  9.7 °C 48.6 °F /  9.2 °C 30.2 in /  1022.2 hPa Calm   1 mph /  1.6 km/h 97 % 0 in /  0.0 mm
08:57 49.5 °F /  9.7 °C 48.6 °F /  9.2 °C 30.2 in /  1022.2 hPa Calm     97 % 0 in /  0.0 mm
09:02 49.6 °F /  9.8 °C 48.7 °F /  9.3 °C 30.2 in /  1022.2 hPa Calm     97 % 0 in /  0.0 mm
09:12 49.8 °F /  9.9 °C 48.9 °F /  9.4 °C 30.2 in /  1022.2 hPa Calm   1 mph /  1.6 km/h 97 % 0 in /  0.0 mm
09:17 49.8 °F /  9.9 °C 48.9 °F /  9.4 °C 30.2 in /  1022.2 hPa Calm   1 mph /  1.6 km/h 97 % 0 in /  0.0 mm
09:22 50 °F /  10.0 °C 49.1 °F /  9.5 °C 30.2 in /  1022.2 hPa Calm   1 mph /  1.6 km/h 97 % 0 in /  0.0 mm
09:27 50.2 °F /  10.1 °C 49.3 °F /  9.6 °C 30.2 in /  1021.9 hPa Calm   1 mph /  1.6 km/h 97 % 0 in /  0.0 mm
09:32 50.4 °F /  10.2 °C 49.5 °F /  9.7 °C 30.2 in /  1022.2 hPa Calm   1 mph /  1.6 km/h 97 % 0 in /  0.0 mm
09:37 50.5 °F /  10.3 °C 49.6 °F /  9.8 °C 30.2 in /  1022.2 hPa Calm   1 mph /  1.6 km/h 97 % 0 in /  0.0 mm
09:42 50.7 °F /  10.4 °C 49.8 °F /  9.9 °C 30.2 in /  1022.2 hPa South 3 mph /  4.8 km/h 3 mph /  4.8 km/h 97 % 0 in /  0.0 mm
09:47 51.1 °F /  10.6 °C 50.2 °F /  10.1 °C 30.2 in /  1022.2 hPa Calm   3 mph /  4.8 km/h 97 % 0 in /  0.0 mm
09:52 51.3 °F /  10.7 °C 50.4 °F /  10.2 °C 30.2 in /  1022.2 hPa Calm   3 mph /  4.8 km/h 97 % 0 in /  0.0 mm
09:57 51.6 °F /  10.9 °C 50.7 °F /  10.4 °C 30.2 in /  1022.2 hPa Calm   3 mph /  4.8 km/h 97 % 0 in /  0.0 mm
10:02 51.8 °F /  11.0 °C 50.9 °F /  10.5 °C 30.2 in /  1022.2 hPa Calm   3 mph /  4.8 km/h 97 % 0 in /  0.0 mm
10:12 52.3 °F /  11.3 °C 51.4 °F /  10.8 °C 30.2 in /  1021.9 hPa Calm   3 mph /  4.8 km/h 97 % 0 in /  0.0 mm
10:17 52.5 °F /  11.4 °C 51.6 °F /  10.9 °C 30.2 in /  1021.9 hPa SSW 2 mph /  3.2 km/h 4 mph /  6.4 km/h 97 % 0 in /  0.0 mm
10:22 52.9 °F /  11.6 °C 51.8 °F /  11.0 °C 30.2 in /  1022.2 hPa SSW 1 mph /  1.6 km/h 4 mph /  6.4 km/h 96 % 0 in /  0.0 mm
10:32 53.2 °F /  11.8 °C 52.2 °F /  11.2 °C 30.2 in /  1022.2 hPa SSW 1 mph /  1.6 km/h 4 mph /  6.4 km/h 96 % 0 in /  0.0 mm
10:37 53.4 °F /  11.9 °C 52.3 °F /  11.3 °C 30.2 in /  1022.2 hPa South 2 mph /  3.2 km/h 3 mph /  4.8 km/h 96 % 0 in /  0.0 mm
10:42 53.6 °F /  12.0 °C 52.2 °F /  11.2 °C 30.2 in /  1022.2 hPa Calm   3 mph /  4.8 km/h 95 % 0 in /  0.0 mm
10:47 53.8 °F /  12.1 °C 52.3 °F /  11.3 °C 30.2 in /  1022.2 hPa Calm   3 mph /  4.8 km/h 95 % 0 in /  0.0 mm
10:52 54.1 °F /  12.3 °C 52.7 °F /  11.5 °C 30.2 in /  1022.2 hPa Calm   3 mph /  4.8 km/h 95 % 0 in /  0.0 mm
11:02 54.5 °F /  12.5 °C 52.9 °F /  11.6 °C 30.2 in /  1022.2 hPa Calm   4 mph /  6.4 km/h 94 % 0 in /  0.0 mm
11:12 55 °F /  12.8 °C 53.1 °F /  11.7 °C 30.2 in /  1022.2 hPa SSW 2 mph /  3.2 km/h 4 mph /  6.4 km/h 93 % 0 in /  0.0 mm
11:17 55.2 °F /  12.9 °C 52.9 °F /  11.6 °C 30.2 in /  1021.9 hPa Calm   5 mph /  8.0 km/h 92 % 0 in /  0.0 mm
11:22 55.6 °F /  13.1 °C 53.2 °F /  11.8 °C 30.2 in /  1021.9 hPa Calm   5 mph /  8.0 km/h 92 % 0 in /  0.0 mm
11:32 55.9 °F /  13.3 °C 53.4 °F /  11.9 °C 30.2 in /  1022.2 hPa SSE 2 mph /  3.2 km/h 5 mph /  8.0 km/h 91 % 0 in /  0.0 mm
11:37 56.3 °F /  13.5 °C 53.4 °F /  11.9 °C 30.2 in /  1022.2 hPa SSW 2 mph /  3.2 km/h 5 mph /  8.0 km/h 90 % 0 in /  0.0 mm
11:42 56.7 °F /  13.7 °C 53.4 °F /  11.9 °C 30.2 in /  1022.2 hPa SSW 3 mph /  4.8 km/h 5 mph /  8.0 km/h 89 % 0 in /  0.0 mm
11:47 56.7 °F /  13.7 °C 53.1 °F /  11.7 °C 30.2 in /  1022.2 hPa SSW 1 mph /  1.6 km/h 6 mph /  9.7 km/h 88 % 0 in /  0.0 mm
11:52 56.8 °F /  13.8 °C 53.2 °F /  11.8 °C 30.2 in /  1022.2 hPa SSE 2 mph /  3.2 km/h 6 mph /  9.7 km/h 88 % 0 in /  0.0 mm
11:57 57.2 °F /  14.0 °C 53.6 °F /  12.0 °C 30.2 in /  1022.2 hPa South 1 mph /  1.6 km/h 7 mph /  11.3 km/h 88 % 0 in /  0.0 mm
12:02 57.6 °F /  14.2 °C 53.8 °F /  12.1 °C 30.2 in /  1022.2 hPa South 2 mph /  3.2 km/h 7 mph /  11.3 km/h 87 % 0 in /  0.0 mm
12:07 57.7 °F /  14.3 °C 54 °F /  12.2 °C 30.2 in /  1022.2 hPa South 4 mph /  6.4 km/h 7 mph /  11.3 km/h 87 % 0 in /  0.0 mm
12:12 57.9 °F /  14.4 °C 54.1 °F /  12.3 °C 30.2 in /  1022.2 hPa SSW 3 mph /  4.8 km/h 7 mph /  11.3 km/h 87 % 0 in /  0.0 mm
12:17 58.3 °F /  14.6 °C 54.1 °F /  12.3 °C 30.2 in /  1022.2 hPa SSW 2 mph /  3.2 km/h 7 mph /  11.3 km/h 86 % 0 in /  0.0 mm
12:27 58.6 °F /  14.8 °C 54.5 °F /  12.5 °C 30.2 in /  1021.9 hPa SSW 4 mph /  6.4 km/h 7 mph /  11.3 km/h 86 % 0 in /  0.0 mm
12:32 58.8 °F /  14.9 °C 54.3 °F /  12.4 °C 30.2 in /  1021.9 hPa SE 3 mph /  4.8 km/h 7 mph /  11.3 km/h 85 % 0 in /  0.0 mm
12:37 59.2 °F /  15.1 °C 54.3 °F /  12.4 °C 30.2 in /  1021.9 hPa South 3 mph /  4.8 km/h 9 mph /  14.5 km/h 84 % 0 in /  0.0 mm
12:42 59.2 °F /  15.1 °C 53.6 °F /  12.0 °C 30.2 in /  1021.9 hPa SSW 9 mph /  14.5 km/h 12 mph /  19.3 km/h 82 % 0 in /  0.0 mm
12:52 59.2 °F /  15.1 °C 53.1 °F /  11.7 °C 30.2 in /  1021.9 hPa SW 9 mph /  14.5 km/h 12 mph /  19.3 km/h 80 % 0 in /  0.0 mm
12:57 59.4 °F /  15.2 °C 53.2 °F /  11.8 °C 30.2 in /  1021.9 hPa SW 5 mph /  8.0 km/h 13 mph /  20.9 km/h 80 % 0 in /  0.0 mm
13:02 59.4 °F /  15.2 °C 52.9 °F /  11.6 °C 30.2 in /  1021.9 hPa SSW 5 mph /  8.0 km/h 13 mph /  20.9 km/h 79 % 0 in /  0.0 mm
13:12 59.4 °F /  15.2 °C 52.9 °F /  11.6 °C 30.2 in /  1021.9 hPa SSW 6 mph /  9.7 km/h 13 mph /  20.9 km/h 79 % 0 in /  0.0 mm
13:17 59.4 °F /  15.2 °C 53.2 °F /  11.8 °C 30.2 in /  1021.9 hPa SSW 8 mph /  12.9 km/h 13 mph /  20.9 km/h 80 % 0 in /  0.0 mm
13:22 59.4 °F /  15.2 °C 52.9 °F /  11.6 °C 30.2 in /  1021.9 hPa SW 9 mph /  14.5 km/h 13 mph /  20.9 km/h 79 % 0 in /  0.0 mm
13:27 59.4 °F /  15.2 °C 53.2 °F /  11.8 °C 30.2 in /  1021.9 hPa SW 10 mph /  16.1 km/h 12 mph /  19.3 km/h 80 % 0 in /  0.0 mm
13:32 59.4 °F /  15.2 °C 53.2 °F /  11.8 °C 30.2 in /  1021.6 hPa SW 4 mph /  6.4 km/h 13 mph /  20.9 km/h 80 % 0 in /  0.0 mm
13:42 59.5 °F /  15.3 °C 53.8 °F /  12.1 °C 30.2 in /  1021.6 hPa SSW 8 mph /  12.9 km/h 13 mph /  20.9 km/h 81 % 0 in /  0.0 mm
13:47 59.7 °F /  15.4 °C 53.6 °F /  12.0 °C 30.2 in /  1021.6 hPa SW 3 mph /  4.8 km/h 12 mph /  19.3 km/h 80 % 0 in /  0.0 mm
13:52 59.7 °F /  15.4 °C 53.6 °F /  12.0 °C 30.2 in /  1021.6 hPa SSW 5 mph /  8.0 km/h 11 mph /  17.7 km/h 80 % 0 in /  0.0 mm
14:02 60.1 °F /  15.6 °C 53.2 °F /  11.8 °C 30.2 in /  1021.6 hPa SW 9 mph /  14.5 km/h 12 mph /  19.3 km/h 78 % 0 in /  0.0 mm
14:12 60.1 °F /  15.6 °C 52.2 °F /  11.2 °C 30.2 in /  1021.6 hPa SW 7 mph /  11.3 km/h 12 mph /  19.3 km/h 75 % 0 in /  0.0 mm
14:18 60.1 °F /  15.6 °C 52.9 °F /  11.6 °C 30.2 in /  1021.6 hPa SW 7 mph /  11.3 km/h 12 mph /  19.3 km/h 77 % 0 in /  0.0 mm
14:27 60.1 °F /  15.6 °C 52.9 °F /  11.6 °C 30.2 in /  1021.6 hPa SW 7 mph /  11.3 km/h 12 mph /  19.3 km/h 77 % 0 in /  0.0 mm
14:32 60.1 °F /  15.6 °C 53.2 °F /  11.8 °C 30.2 in /  1021.6 hPa SW 9 mph /  14.5 km/h 12 mph /  19.3 km/h 78 % 0 in /  0.0 mm
14:42 59.7 °F /  15.4 °C 53.2 °F /  11.8 °C 30.2 in /  1021.6 hPa SW 3 mph /  4.8 km/h 11 mph /  17.7 km/h 79 % 0 in /  0.0 mm
14:47 59.7 °F /  15.4 °C 53.6 °F /  12.0 °C 30.2 in /  1021.6 hPa SSW 6 mph /  9.7 km/h 11 mph /  17.7 km/h 80 % 0 in /  0.0 mm
14:52 59.9 °F /  15.5 °C 53.4 °F /  11.9 °C 30.2 in /  1021.6 hPa SW 7 mph /  11.3 km/h 11 mph /  17.7 km/h 79 % 0 in /  0.0 mm
14:57 59.7 °F /  15.4 °C 52.2 °F /  11.2 °C 30.2 in /  1021.6 hPa South 8 mph /  12.9 km/h 10 mph /  16.1 km/h 76 % 0 in /  0.0 mm
15:02 59.7 °F /  15.4 °C 52.9 °F /  11.6 °C 30.2 in /  1021.6 hPa SSW 2 mph /  3.2 km/h 12 mph /  19.3 km/h 78 % 0 in /  0.0 mm
15:07 59.7 °F /  15.4 °C 52.5 °F /  11.4 °C 30.2 in /  1021.6 hPa SW 5 mph /  8.0 km/h 12 mph /  19.3 km/h 77 % 0 in /  0.0 mm
15:17 60.1 °F /  15.6 °C 52.2 °F /  11.2 °C 30.2 in /  1021.6 hPa SSW 5 mph /  8.0 km/h 12 mph /  19.3 km/h 75 % 0 in /  0.0 mm
15:22 60.3 °F /  15.7 °C 52.7 °F /  11.5 °C 30.2 in /  1021.2 hPa SW 6 mph /  9.7 km/h 12 mph /  19.3 km/h 76 % 0 in /  0.0 mm
15:27 60.3 °F /  15.7 °C 53.1 °F /  11.7 °C 30.2 in /  1021.6 hPa SSW 6 mph /  9.7 km/h 12 mph /  19.3 km/h 77 % 0 in /  0.0 mm
15:32 60.3 °F /  15.7 °C 52.7 °F /  11.5 °C 30.2 in /  1021.2 hPa SSW 6 mph /  9.7 km/h 13 mph /  20.9 km/h 76 % 0 in /  0.0 mm
15:37 60.3 °F /  15.7 °C 52.7 °F /  11.5 °C 30.2 in /  1021.6 hPa SW 9 mph /  14.5 km/h 13 mph /  20.9 km/h 76 % 0 in /  0.0 mm
15:42 60.3 °F /  15.7 °C 52.7 °F /  11.5 °C 30.2 in /  1021.2 hPa SW 10 mph /  16.1 km/h 13 mph /  20.9 km/h 76 % 0 in /  0.0 mm
15:47 60.1 °F /  15.6 °C 52.2 °F /  11.2 °C 30.2 in /  1021.2 hPa SW 11 mph /  17.7 km/h 15 mph /  24.1 km/h 75 % 0 in /  0.0 mm
15:52 59.7 °F /  15.4 °C 51.8 °F /  11.0 °C 30.2 in /  1021.2 hPa SW 6 mph /  9.7 km/h 15 mph /  24.1 km/h 75 % 0 in /  0.0 mm
15:57 59.5 °F /  15.3 °C 52.7 °F /  11.5 °C 30.2 in /  1021.2 hPa WSW 12 mph /  19.3 km/h 15 mph /  24.1 km/h 78 % 0 in /  0.0 mm
16:02 59.5 °F /  15.3 °C 52.7 °F /  11.5 °C 30.2 in /  1021.2 hPa SW 10 mph /  16.1 km/h 15 mph /  24.1 km/h 78 % 0 in /  0.0 mm
16:12 59.2 °F /  15.1 °C 53.1 °F /  11.7 °C 30.2 in /  1021.6 hPa SW 8 mph /  12.9 km/h 14 mph /  22.5 km/h 80 % 0 in /  0.0 mm
16:17 59 °F /  15.0 °C 52.9 °F /  11.6 °C 30.2 in /  1021.6 hPa SSW 7 mph /  11.3 km/h 14 mph /  22.5 km/h 80 % 0 in /  0.0 mm
16:22 58.8 °F /  14.9 °C 52.7 °F /  11.5 °C 30.2 in /  1021.6 hPa South 7 mph /  11.3 km/h 14 mph /  22.5 km/h 80 % 0 in /  0.0 mm
16:27 58.6 °F /  14.8 °C 52.5 °F /  11.4 °C 30.2 in /  1021.6 hPa SSE 4 mph /  6.4 km/h 14 mph /  22.5 km/h 80 % 0 in /  0.0 mm
16:32 58.6 °F /  14.8 °C 53.4 °F /  11.9 °C 30.2 in /  1021.6 hPa SW 5 mph /  8.0 km/h 14 mph /  22.5 km/h 83 % 0 in /  0.0 mm
16:37 58.5 °F /  14.7 °C 54 °F /  12.2 °C 30.2 in /  1021.2 hPa SW 7 mph /  11.3 km/h 12 mph /  19.3 km/h 85 % 0 in /  0.0 mm
16:42 58.3 °F /  14.6 °C 53.8 °F /  12.1 °C 30.2 in /  1021.2 hPa SSW 7 mph /  11.3 km/h 12 mph /  19.3 km/h 85 % 0 in /  0.0 mm
16:47 58.1 °F /  14.5 °C 54.3 °F /  12.4 °C 30.2 in /  1021.6 hPa SW 7 mph /  11.3 km/h 12 mph /  19.3 km/h 87 % 0 in /  0.0 mm
16:52 57.7 °F /  14.3 °C 54.1 °F /  12.3 °C 30.2 in /  1021.2 hPa SW 8 mph /  12.9 km/h 11 mph /  17.7 km/h 88 % 0 in /  0.0 mm
17:02 57.2 °F /  14.0 °C 54.3 °F /  12.4 °C 30.2 in /  1021.2 hPa SSW 6 mph /  9.7 km/h 12 mph /  19.3 km/h 90 % 0 in /  0.0 mm
17:12 57.2 °F /  14.0 °C 54.7 °F /  12.6 °C 30.2 in /  1021.2 hPa SSW 3 mph /  4.8 km/h 10 mph /  16.1 km/h 91 % 0 in /  0.0 mm
17:17 57.2 °F /  14.0 °C 54.7 °F /  12.6 °C 30.2 in /  1021.2 hPa South 6 mph /  9.7 km/h 9 mph /  14.5 km/h 91 % 0 in /  0.0 mm
17:22 57.4 °F /  14.1 °C 55 °F /  12.8 °C 30.2 in /  1020.9 hPa SW 8 mph /  12.9 km/h 9 mph /  14.5 km/h 92 % 0 in /  0.0 mm
17:32 57.2 °F /  14.0 °C 54.9 °F /  12.7 °C 30.2 in /  1021.2 hPa SW 4 mph /  6.4 km/h 10 mph /  16.1 km/h 92 % 0 in /  0.0 mm
17:42 57.2 °F /  14.0 °C 54.9 °F /  12.7 °C 30.2 in /  1021.2 hPa SSW 7 mph /  11.3 km/h 10 mph /  16.1 km/h 92 % 0 in /  0.0 mm
17:47 57.4 °F /  14.1 °C 55.4 °F /  13.0 °C 30.2 in /  1020.9 hPa SW 5 mph /  8.0 km/h 10 mph /  16.1 km/h 93 % 0 in /  0.0 mm
17:52 57.4 °F /  14.1 °C 55.4 °F /  13.0 °C 30.2 in /  1020.9 hPa SW 4 mph /  6.4 km/h 10 mph /  16.1 km/h 93 % 0 in /  0.0 mm
17:57 57.6 °F /  14.2 °C 55.6 °F /  13.1 °C 30.2 in /  1020.9 hPa SW 6 mph /  9.7 km/h 9 mph /  14.5 km/h 93 % 0 in /  0.0 mm
18:02 57.4 °F /  14.1 °C 55.4 °F /  13.0 °C 30.2 in /  1020.9 hPa SW 7 mph /  11.3 km/h 8 mph /  12.9 km/h 93 % 0 in /  0.0 mm
18:07 57.4 °F /  14.1 °C 55.4 °F /  13.0 °C 30.2 in /  1020.9 hPa South 3 mph /  4.8 km/h 10 mph /  16.1 km/h 93 % 0 in /  0.0 mm
18:12 57.4 °F /  14.1 °C 55.6 °F /  13.1 °C 30.2 in /  1020.9 hPa SSW 4 mph /  6.4 km/h 10 mph /  16.1 km/h 94 % 0 in /  0.0 mm
18:17 57.4 °F /  14.1 °C 55.6 °F /  13.1 °C 30.2 in /  1020.9 hPa SW 8 mph /  12.9 km/h 10 mph /  16.1 km/h 94 % 0 in /  0.0 mm
18:22 57.2 °F /  14.0 °C 55.4 °F /  13.0 °C 30.2 in /  1020.9 hPa South 8 mph /  12.9 km/h 10 mph /  16.1 km/h 94 % 0 in /  0.0 mm
18:27 57 °F /  13.9 °C 55.2 °F /  12.9 °C 30.2 in /  1020.9 hPa SW 6 mph /  9.7 km/h 13 mph /  20.9 km/h 94 % 0 in /  0.0 mm
18:32 57 °F /  13.9 °C 55.2 °F /  12.9 °C 30.2 in /  1020.9 hPa SSW 5 mph /  8.0 km/h 13 mph /  20.9 km/h 94 % 0 in /  0.0 mm
18:37 57 °F /  13.9 °C 55.6 °F /  13.1 °C 30.2 in /  1020.9 hPa SSW 7 mph /  11.3 km/h 13 mph /  20.9 km/h 95 % 0 in /  0.0 mm
18:42 57 °F /  13.9 °C 55.6 °F /  13.1 °C 30.2 in /  1020.9 hPa South 5 mph /  8.0 km/h 13 mph /  20.9 km/h 95 % 0 in /  0.0 mm
18:47 56.8 °F /  13.8 °C 55.4 °F /  13.0 °C 30.2 in /  1020.9 hPa SSW 6 mph /  9.7 km/h 13 mph /  20.9 km/h 95 % 0 in /  0.0 mm
18:52 56.8 °F /  13.8 °C 55.4 °F /  13.0 °C 30.2 in /  1020.9 hPa South 3 mph /  4.8 km/h 10 mph /  16.1 km/h 95 % 0 in /  0.0 mm
19:02 56.8 °F /  13.8 °C 55.4 °F /  13.0 °C 30.2 in /  1021.2 hPa SW 5 mph /  8.0 km/h 10 mph /  16.1 km/h 95 % 0 in /  0.0 mm
19:12 56.8 °F /  13.8 °C 55.8 °F /  13.2 °C 30.2 in /  1021.2 hPa SW 6 mph /  9.7 km/h 11 mph /  17.7 km/h 96 % 0 in /  0.0 mm
19:17 56.8 °F /  13.8 °C 55.8 °F /  13.2 °C 30.2 in /  1021.2 hPa SSW 4 mph /  6.4 km/h 11 mph /  17.7 km/h 96 % 0 in /  0.0 mm
19:22 56.8 °F /  13.8 °C 55.8 °F /  13.2 °C 30.2 in /  1021.2 hPa SW 7 mph /  11.3 km/h 11 mph /  17.7 km/h 96 % 0 in /  0.0 mm
19:27 56.8 °F /  13.8 °C 55.8 °F /  13.2 °C 30.2 in /  1020.9 hPa SW 4 mph /  6.4 km/h 9 mph /  14.5 km/h 96 % 0 in /  0.0 mm
19:32 56.8 °F /  13.8 °C 55.8 °F /  13.2 °C 30.2 in /  1020.9 hPa SW 7 mph /  11.3 km/h 9 mph /  14.5 km/h 96 % 0 in /  0.0 mm
19:37 56.8 °F /  13.8 °C 55.8 °F /  13.2 °C 30.2 in /  1021.2 hPa SSW 5 mph /  8.0 km/h 12 mph /  19.3 km/h 96 % 0 in /  0.0 mm
19:42 56.7 °F /  13.7 °C 55.6 °F /  13.1 °C 30.2 in /  1020.9 hPa SW 9 mph /  14.5 km/h 12 mph /  19.3 km/h 96 % 0 in /  0.0 mm
19:47 56.7 °F /  13.7 °C 55.6 °F /  13.1 °C 30.2 in /  1021.2 hPa SSW 4 mph /  6.4 km/h 12 mph /  19.3 km/h 96 % 0 in /  0.0 mm
19:52 56.7 °F /  13.7 °C 55.6 °F /  13.1 °C 30.2 in /  1021.2 hPa SW 3 mph /  4.8 km/h 11 mph /  17.7 km/h 96 % 0 in /  0.0 mm
19:57 56.7 °F /  13.7 °C 55.6 °F /  13.1 °C 30.2 in /  1021.2 hPa SSW 5 mph /  8.0 km/h 11 mph /  17.7 km/h 96 % 0 in /  0.0 mm
20:02 56.7 °F /  13.7 °C 55.6 °F /  13.1 °C 30.2 in /  1021.2 hPa South 6 mph /  9.7 km/h 9 mph /  14.5 km/h 96 % 0 in /  0.0 mm
20:07 56.7 °F /  13.7 °C 55.6 °F /  13.1 °C 30.2 in /  1021.2 hPa SSW 4 mph /  6.4 km/h 8 mph /  12.9 km/h 96 % 0 in /  0.0 mm
20:12 56.7 °F /  13.7 °C 55.6 °F /  13.1 °C 30.2 in /  1021.2 hPa SSW 7 mph /  11.3 km/h 9 mph /  14.5 km/h 96 % 0 in /  0.0 mm
20:17 56.7 °F /  13.7 °C 55.6 °F /  13.1 °C 30.2 in /  1021.2 hPa SW 4 mph /  6.4 km/h 9 mph /  14.5 km/h 96 % 0 in /  0.0 mm
20:22 56.7 °F /  13.7 °C 55.6 °F /  13.1 °C 30.2 in /  1021.2 hPa SSW 6 mph /  9.7 km/h 9 mph /  14.5 km/h 96 % 0 in /  0.0 mm
20:27 56.7 °F /  13.7 °C 55.6 °F /  13.1 °C 30.2 in /  1021.2 hPa SSW 6 mph /  9.7 km/h 8 mph /  12.9 km/h 96 % 0 in /  0.0 mm
20:32 56.7 °F /  13.7 °C 55.6 °F /  13.1 °C 30.2 in /  1021.2 hPa SSW 4 mph /  6.4 km/h 8 mph /  12.9 km/h 96 % 0 in /  0.0 mm
20:37 56.7 °F /  13.7 °C 55.6 °F /  13.1 °C 30.2 in /  1021.2 hPa SSW 5 mph /  8.0 km/h 8 mph /  12.9 km/h 96 % 0 in /  0.0 mm
20:42 56.7 °F /  13.7 °C 55.6 °F /  13.1 °C 30.2 in /  1021.2 hPa SSW 2 mph /  3.2 km/h 8 mph /  12.9 km/h 96 % 0 in /  0.0 mm
20:52 56.8 °F /  13.8 °C 55.8 °F /  13.2 °C 30.2 in /  1021.2 hPa SW 6 mph /  9.7 km/h 9 mph /  14.5 km/h 96 % 0 in /  0.0 mm
20:57 56.8 °F /  13.8 °C 55.8 °F /  13.2 °C 30.2 in /  1021.6 hPa SW 2 mph /  3.2 km/h 8 mph /  12.9 km/h 96 % 0 in /  0.0 mm
21:02 56.8 °F /  13.8 °C 55.8 °F /  13.2 °C 30.2 in /  1021.6 hPa SSW 3 mph /  4.8 km/h 8 mph /  12.9 km/h 96 % 0 in /  0.0 mm
21:07 56.8 °F /  13.8 °C 55.8 °F /  13.2 °C 30.2 in /  1021.6 hPa SSW 3 mph /  4.8 km/h 8 mph /  12.9 km/h 96 % 0 in /  0.0 mm
21:12 56.8 °F /  13.8 °C 55.8 °F /  13.2 °C 30.2 in /  1021.6 hPa SW 2 mph /  3.2 km/h 7 mph /  11.3 km/h 96 % 0 in /  0.0 mm
21:17 56.8 °F /  13.8 °C 55.8 °F /  13.2 °C 30.2 in /  1021.6 hPa SSW 2 mph /  3.2 km/h 7 mph /  11.3 km/h 96 % 0 in /  0.0 mm
21:22 56.8 °F /  13.8 °C 55.8 °F /  13.2 °C 30.2 in /  1021.6 hPa SW 3 mph /  4.8 km/h 7 mph /  11.3 km/h 96 % 0 in /  0.0 mm
21:27 56.8 °F /  13.8 °C 55.8 °F /  13.2 °C 30.2 in /  1021.6 hPa SW 4 mph /  6.4 km/h 8 mph /  12.9 km/h 96 % 0 in /  0.0 mm
21:32 57 °F /  13.9 °C 55.9 °F /  13.3 °C 30.2 in /  1021.6 hPa SW 3 mph /  4.8 km/h 10 mph /  16.1 km/h 96 % 0 in /  0.0 mm
21:37 57 °F /  13.9 °C 55.9 °F /  13.3 °C 30.2 in /  1021.6 hPa SW 2 mph /  3.2 km/h 10 mph /  16.1 km/h 96 % 0 in /  0.0 mm
21:42 57 °F /  13.9 °C 55.9 °F /  13.3 °C 30.2 in /  1021.6 hPa SW 3 mph /  4.8 km/h 7 mph /  11.3 km/h 96 % 0 in /  0.0 mm
21:47 57 °F /  13.9 °C 55.9 °F /  13.3 °C 30.2 in /  1021.6 hPa SSW 3 mph /  4.8 km/h 7 mph /  11.3 km/h 96 % 0 in /  0.0 mm
21:52 57 °F /  13.9 °C 55.6 °F /  13.1 °C 30.2 in /  1021.6 hPa SW 5 mph /  8.0 km/h 7 mph /  11.3 km/h 95 % 0 in /  0.0 mm
21:57 57 °F /  13.9 °C 55.9 °F /  13.3 °C 30.2 in /  1021.6 hPa SW 5 mph /  8.0 km/h 10 mph /  16.1 km/h 96 % 0 in /  0.0 mm
22:02 57 °F /  13.9 °C 55.9 °F /  13.3 °C 30.2 in /  1021.6 hPa SW 5 mph /  8.0 km/h 10 mph /  16.1 km/h 96 % 0 in /  0.0 mm
22:07 57 °F /  13.9 °C 55.9 °F /  13.3 °C 30.2 in /  1021.6 hPa SSW 6 mph /  9.7 km/h 10 mph /  16.1 km/h 96 % 0 in /  0.0 mm
22:12 57 °F /  13.9 °C 55.9 °F /  13.3 °C 30.2 in /  1021.6 hPa SW 7 mph /  11.3 km/h 8 mph /  12.9 km/h 96 % 0 in /  0.0 mm
22:17 57 °F /  13.9 °C 55.9 °F /  13.3 °C 30.2 in /  1021.6 hPa SSW 4 mph /  6.4 km/h 8 mph /  12.9 km/h 96 % 0 in /  0.0 mm
22:22 57 °F /  13.9 °C 55.9 °F /  13.3 °C 30.2 in /  1021.6 hPa SW 4 mph /  6.4 km/h 9 mph /  14.5 km/h 96 % 0 in /  0.0 mm
22:32 57 °F /  13.9 °C 55.9 °F /  13.3 °C 30.2 in /  1021.6 hPa SSW 5 mph /  8.0 km/h 9 mph /  14.5 km/h 96 % 0 in /  0.0 mm
22:42 57 °F /  13.9 °C 55.9 °F /  13.3 °C 30.2 in /  1021.6 hPa SSW 2 mph /  3.2 km/h 9 mph /  14.5 km/h 96 % 0.01 in /  0.3 mm
22:47 56.8 °F /  13.8 °C 55.8 °F /  13.2 °C 30.2 in /  1021.2 hPa SW 5 mph /  8.0 km/h 9 mph /  14.5 km/h 96 % 0.01 in /  0.3 mm
22:52 56.8 °F /  13.8 °C 55.8 °F /  13.2 °C 30.2 in /  1021.2 hPa South 3 mph /  4.8 km/h 8 mph /  12.9 km/h 96 % 0.01 in /  0.3 mm
22:57 56.8 °F /  13.8 °C 55.8 °F /  13.2 °C 30.2 in /  1021.2 hPa SSW 1 mph /  1.6 km/h 8 mph /  12.9 km/h 96 % 0.02 in /  0.5 mm
23:02 56.8 °F /  13.8 °C 55.8 °F /  13.2 °C 30.2 in /  1021.2 hPa SSW 3 mph /  4.8 km/h 7 mph /  11.3 km/h 96 % 0.02 in /  0.5 mm
23:12 56.8 °F /  13.8 °C 55.8 °F /  13.2 °C 30.2 in /  1021.6 hPa SW 4 mph /  6.4 km/h 7 mph /  11.3 km/h 96 % 0.02 in /  0.5 mm
23:17 56.8 °F /  13.8 °C 55.8 °F /  13.2 °C 30.2 in /  1021.2 hPa SSW 6 mph /  9.7 km/h 7 mph /  11.3 km/h 96 % 0.02 in /  0.5 mm
23:22 56.8 °F /  13.8 °C 55.8 °F /  13.2 °C 30.2 in /  1021.6 hPa South 3 mph /  4.8 km/h 7 mph /  11.3 km/h 96 % 0.02 in /  0.5 mm
23:27 56.8 °F /  13.8 °C 55.8 °F /  13.2 °C 30.2 in /  1021.2 hPa SSW 4 mph /  6.4 km/h 8 mph /  12.9 km/h 96 % 0.02 in /  0.5 mm
23:32 56.8 °F /  13.8 °C 55.8 °F /  13.2 °C 30.2 in /  1021.2 hPa SSW 4 mph /  6.4 km/h 11 mph /  17.7 km/h 96 % 0.02 in /  0.5 mm
23:37 56.8 °F /  13.8 °C 55.9 °F /  13.3 °C 30.2 in /  1021.2 hPa SW 4 mph /  6.4 km/h 11 mph /  17.7 km/h 97 % 0.01 in /  0.3 mm
23:42 56.8 °F /  13.8 °C 55.9 °F /  13.3 °C 30.2 in /  1021.2 hPa SW 4 mph /  6.4 km/h 11 mph /  17.7 km/h 97 % 0.01 in /  0.3 mm
23:47 56.8 °F /  13.8 °C 55.9 °F /  13.3 °C 30.2 in /  1021.2 hPa SW 6 mph /  9.7 km/h 8 mph /  12.9 km/h 97 % 0.01 in /  0.3 mm
23:52 56.8 °F /  13.8 °C 55.9 °F /  13.3 °C 30.2 in /  1020.9 hPa SW 4 mph /  6.4 km/h 10 mph /  16.1 km/h 97 % 0.01 in /  0.3 mm
23:57 56.8 °F /  13.8 °C 55.9 °F /  13.3 °C 30.2 in /  1020.9 hPa SSW 7 mph /  11.3 km/h 11 mph /  17.7 km/h 97 % 0 in /  0.0 mm
Meteo18
Compliments of Weather Underground - 4 mb

Script developed by  Jim McMurry - jmcmurry@mwt.net Adapted for the template by  Wim van der Kuil - Leuven-Template.eu

You find our weather info also at:

European Weather Network

Weather Underground

Equipment we use:

Weather-station
Davis Vue

Weather-program
Meteohub

Weather-server
Raspberry PI 2 B+

Provider
1 and 1

Davis Vue

Meteohub

Raspberry PI 2 B+

1 and 1